sensor_id;sensor_type;location;lat;lon;timestamp;pressure;altitude;pressure_sealevel;temperature;humidity
63500;BME280;49654;51.142;14.924;2023-05-23T00:00:45;98789.50;;;14.04;69.08
63500;BME280;49654;51.142;14.924;2023-05-23T00:03:13;98754.25;;;13.82;68.78
63500;BME280;49654;51.142;14.924;2023-05-23T00:05:40;98783.53;;;13.97;69.04
63500;BME280;49654;51.142;14.924;2023-05-23T00:08:07;98734.81;;;13.65;69.24
63500;BME280;49654;51.142;14.924;2023-05-23T00:10:34;98779.72;;;13.87;69.25
63500;BME280;49654;51.142;14.924;2023-05-23T00:13:01;98761.09;;;13.76;69.52
63500;BME280;49654;51.142;14.924;2023-05-23T00:15:29;98758.31;;;13.71;69.17
63500;BME280;49654;51.142;14.924;2023-05-23T00:17:58;98777.16;;;13.73;69.34
63500;BME280;49654;51.142;14.924;2023-05-23T00:20:25;98745.69;;;13.48;69.87
63500;BME280;49654;51.142;14.924;2023-05-23T00:22:53;98768.75;;;13.65;70.30
63500;BME280;49654;51.142;14.924;2023-05-23T00:25:23;98781.38;;;13.61;70.17
63500;BME280;49654;51.142;14.924;2023-05-23T00:27:50;98677.53;;;12.98;70.58
63500;BME280;49654;51.142;14.924;2023-05-23T00:30:17;98774.00;;;13.58;70.40
63500;BME280;49654;51.142;14.924;2023-05-23T00:32:45;98782.00;;;13.57;70.42
63500;BME280;49654;51.142;14.924;2023-05-23T00:35:12;98778.63;;;13.49;70.18
63500;BME280;49654;51.142;14.924;2023-05-23T00:37:39;98761.75;;;13.39;69.74
63500;BME280;49654;51.142;14.924;2023-05-23T00:40:07;98776.81;;;13.50;69.68
63500;BME280;49654;51.142;14.924;2023-05-23T00:42:34;98738.31;;;13.25;70.01
63500;BME280;49654;51.142;14.924;2023-05-23T00:45:01;98733.47;;;13.16;70.07
63500;BME280;49654;51.142;14.924;2023-05-23T00:47:28;98749.13;;;13.29;70.12
63500;BME280;49654;51.142;14.924;2023-05-23T00:49:57;98772.78;;;13.47;70.16
63500;BME280;49654;51.142;14.924;2023-05-23T00:52:24;98752.34;;;13.24;69.85
63500;BME280;49654;51.142;14.924;2023-05-23T00:54:51;98753.72;;;13.27;70.22
63500;BME280;49654;51.142;14.924;2023-05-23T00:57:18;98710.59;;;13.04;70.36
63500;BME280;49654;51.142;14.924;2023-05-23T00:59:46;98751.72;;;13.22;70.91
63500;BME280;49654;51.142;14.924;2023-05-23T01:02:13;98730.66;;;13.11;70.42
63500;BME280;49654;51.142;14.924;2023-05-23T01:04:40;98739.91;;;13.07;70.26
63500;BME280;49654;51.142;14.924;2023-05-23T01:07:09;98767.59;;;13.27;70.78
63500;BME280;49654;51.142;14.924;2023-05-23T01:09:37;98739.91;;;13.07;70.44
63500;BME280;49654;51.142;14.924;2023-05-23T01:12:13;98753.50;;;13.22;70.25
63500;BME280;49654;51.142;14.924;2023-05-23T01:14:48;98721.44;;;13.08;69.58
63500;BME280;49654;51.142;14.924;2023-05-23T01:17:20;98752.34;;;13.24;69.82
63500;BME280;49654;51.142;14.924;2023-05-23T01:19:57;98767.56;;;13.34;70.34
63500;BME280;49654;51.142;14.924;2023-05-23T01:22:40;98671.34;;;12.73;70.31
63500;BME280;49654;51.142;14.924;2023-05-23T01:25:23;98759.97;;;13.26;70.06
63500;BME280;49654;51.142;14.924;2023-05-23T01:27:56;98727.66;;;13.07;70.64
63500;BME280;49654;51.142;14.924;2023-05-23T01:30:26;98710.00;;;12.96;71.30
63500;BME280;49654;51.142;14.924;2023-05-23T01:32:57;98750.53;;;13.12;71.50
63500;BME280;49654;51.142;14.924;2023-05-23T01:35:26;98745.47;;;13.10;72.14
63500;BME280;49654;51.142;14.924;2023-05-23T01:37:54;98745.91;;;13.07;72.10
63500;BME280;49654;51.142;14.924;2023-05-23T01:40:21;98742.50;;;12.93;72.52
63500;BME280;49654;51.142;14.924;2023-05-23T01:42:51;98761.94;;;13.17;72.43
63500;BME280;49654;51.142;14.924;2023-05-23T01:45:25;98759.53;;;12.96;72.18
63500;BME280;49654;51.142;14.924;2023-05-23T01:47:53;98783.78;;;13.10;72.32
63500;BME280;49654;51.142;14.924;2023-05-23T01:50:21;98688.50;;;12.41;72.56
63500;BME280;49654;51.142;14.924;2023-05-23T01:52:49;98762.75;;;13.04;71.75
63500;BME280;49654;51.142;14.924;2023-05-23T01:55:18;98681.31;;;12.63;71.50
63500;BME280;49654;51.142;14.924;2023-05-23T01:57:49;98770.38;;;13.19;71.88
63500;BME280;49654;51.142;14.924;2023-05-23T02:00:17;98782.63;;;13.25;72.12
63500;BME280;49654;51.142;14.924;2023-05-23T02:02:45;98777.81;;;13.29;71.84
63500;BME280;49654;51.142;14.924;2023-05-23T02:05:13;98785.84;;;13.27;71.64
63500;BME280;49654;51.142;14.924;2023-05-23T02:07:40;98777.81;;;13.22;72.04
63500;BME280;49654;51.142;14.924;2023-05-23T02:10:08;98784.59;;;13.10;72.80
63500;BME280;49654;51.142;14.924;2023-05-23T02:12:35;98788.22;;;13.16;72.85
63500;BME280;49654;51.142;14.924;2023-05-23T02:15:02;98703.78;;;12.70;73.33
63500;BME280;49654;51.142;14.924;2023-05-23T02:17:30;98772.81;;;13.27;72.91
63500;BME280;49654;51.142;14.924;2023-05-23T02:19:58;98721.00;;;12.85;72.30
63500;BME280;49654;51.142;14.924;2023-05-23T02:22:25;98735.06;;;12.97;73.12
63500;BME280;49654;51.142;14.924;2023-05-23T02:24:52;98727.03;;;13.05;73.04
63500;BME280;49654;51.142;14.924;2023-05-23T02:27:19;98737.09;;;13.28;71.81
63500;BME280;49654;51.142;14.924;2023-05-23T02:29:46;98662.09;;;12.84;72.16
63500;BME280;49654;51.142;14.924;2023-05-23T02:32:13;98766.16;;;13.58;72.23
63500;BME280;49654;51.142;14.924;2023-05-23T02:34:40;98762.94;;;13.63;72.35
63500;BME280;49654;51.142;14.924;2023-05-23T02:37:08;98731.06;;;13.41;72.76
63500;BME280;49654;51.142;14.924;2023-05-23T02:39:35;98761.34;;;13.48;73.43
63500;BME280;49654;51.142;14.924;2023-05-23T02:42:02;98755.69;;;13.65;73.47
63500;BME280;49654;51.142;14.924;2023-05-23T02:44:30;98758.31;;;13.71;73.77
63500;BME280;49654;51.142;14.924;2023-05-23T02:46:57;98719.16;;;13.71;72.39
63500;BME280;49654;51.142;14.924;2023-05-23T02:49:23;98726.56;;;13.88;71.94
63500;BME280;49654;51.142;14.924;2023-05-23T02:51:50;98758.19;;;14.11;71.30
63500;BME280;49654;51.142;14.924;2023-05-23T02:54:19;98748.59;;;13.98;72.13
63500;BME280;49654;51.142;14.924;2023-05-23T02:56:46;98755.41;;;13.99;71.93
63500;BME280;49654;51.142;14.924;2023-05-23T02:59:13;98758.19;;;14.11;72.82
63500;BME280;49654;51.142;14.924;2023-05-23T03:01:40;98756.38;;;14.12;72.53
63500;BME280;49654;51.142;14.924;2023-05-23T03:04:07;98724.88;;;14.00;72.69
63500;BME280;49654;51.142;14.924;2023-05-23T03:06:34;98763.28;;;14.38;71.85
63500;BME280;49654;51.142;14.924;2023-05-23T03:09:01;98764.88;;;14.39;71.48
63500;BME280;49654;51.142;14.924;2023-05-23T03:11:29;98719.97;;;14.23;71.17
63500;BME280;49654;51.142;14.924;2023-05-23T03:13:56;98758.59;;;14.46;71.38
63500;BME280;49654;51.142;14.924;2023-05-23T03:16:23;98752.00;;;14.50;71.93
63500;BME280;49654;51.142;14.924;2023-05-23T03:18:50;98754.19;;;14.47;71.95
63500;BME280;49654;51.142;14.924;2023-05-23T03:21:17;98749.94;;;14.14;73.27
63500;BME280;49654;51.142;14.924;2023-05-23T03:23:44;98761.69;;;14.37;73.49
63500;BME280;49654;51.142;14.924;2023-05-23T03:26:11;98721.94;;;14.28;73.43
63500;BME280;49654;51.142;14.924;2023-05-23T03:28:39;98703.38;;;14.43;72.82
63500;BME280;49654;51.142;14.924;2023-05-23T03:31:06;98717.56;;;14.60;72.22
63500;BME280;49654;51.142;14.924;2023-05-23T03:33:33;98701.53;;;14.57;72.38
63500;BME280;49654;51.142;14.924;2023-05-23T03:36:00;98719.75;;;14.63;72.94
63500;BME280;49654;51.142;14.924;2023-05-23T03:38:27;98732.81;;;14.63;73.54
63500;BME280;49654;51.142;14.924;2023-05-23T03:40:54;98711.38;;;14.55;73.27
63500;BME280;49654;51.142;14.924;2023-05-23T03:43:20;98724.47;;;14.80;72.78
63500;BME280;49654;51.142;14.924;2023-05-23T03:45:49;98726.94;;;14.74;73.10
63500;BME280;49654;51.142;14.924;2023-05-23T03:48:16;98731.81;;;14.96;72.81
63500;BME280;49654;51.142;14.924;2023-05-23T03:50:43;98739.94;;;15.06;72.52
63500;BME280;49654;51.142;14.924;2023-05-23T03:53:10;98748.72;;;15.18;72.66
63500;BME280;49654;51.142;14.924;2023-05-23T03:55:37;98709.19;;;15.08;72.71
63500;BME280;49654;51.142;14.924;2023-05-23T03:58:04;98710.63;;;15.04;73.19
63500;BME280;49654;51.142;14.924;2023-05-23T04:00:31;98724.06;;;15.08;73.23
63500;BME280;49654;51.142;14.924;2023-05-23T04:03:00;98754.25;;;15.28;71.87
63500;BME280;49654;51.142;14.924;2023-05-23T04:05:27;98744.56;;;15.54;67.76
63500;BME280;49654;51.142;14.924;2023-05-23T04:07:53;98768.75;;;15.93;64.68
63500;BME280;49654;51.142;14.924;2023-05-23T04:10:21;98731.38;;;15.86;64.66
63500;BME280;49654;51.142;14.924;2023-05-23T04:12:48;98746.69;;;16.00;64.18
63500;BME280;49654;51.142;14.924;2023-05-23T04:15:16;98686.38;;;15.77;65.84
63500;BME280;49654;51.142;14.924;2023-05-23T04:17:46;98717.41;;;16.10;65.94
63500;BME280;49654;51.142;14.924;2023-05-23T04:20:14;98722.78;;;16.27;66.81
63500;BME280;49654;51.142;14.924;2023-05-23T04:22:41;98722.22;;;16.25;66.74
63500;BME280;49654;51.142;14.924;2023-05-23T04:25:08;98724.13;;;16.18;67.02
63500;BME280;49654;51.142;14.924;2023-05-23T04:27:35;98717.47;;;16.34;68.23
63500;BME280;49654;51.142;14.924;2023-05-23T04:30:05;98703.41;;;16.16;69.25
63500;BME280;49654;51.142;14.924;2023-05-23T04:32:34;98691.16;;;15.98;70.26
63500;BME280;49654;51.142;14.924;2023-05-23T04:35:01;98708.28;;;16.13;70.81
63500;BME280;49654;51.142;14.924;2023-05-23T04:37:30;98713.47;;;16.31;70.80
63500;BME280;49654;51.142;14.924;2023-05-23T04:39:57;98674.59;;;16.16;72.56
63500;BME280;49654;51.142;14.924;2023-05-23T04:42:25;98706.75;;;16.35;73.76
63500;BME280;49654;51.142;14.924;2023-05-23T04:44:54;98676.19;;;16.17;75.69
63500;BME280;49654;51.142;14.924;2023-05-23T04:47:23;98698.81;;;16.42;76.83
63500;BME280;49654;51.142;14.924;2023-05-23T04:49:53;98679.78;;;16.35;78.30
63500;BME280;49654;51.142;14.924;2023-05-23T04:52:22;98687.13;;;16.56;78.52
63500;BME280;49654;51.142;14.924;2023-05-23T04:54:51;98688.09;;;16.73;79.02
63500;BME280;49654;51.142;14.924;2023-05-23T04:57:18;98686.63;;;16.77;79.57
63500;BME280;49654;51.142;14.924;2023-05-23T04:59:45;98684.47;;;16.74;80.13
63500;BME280;49654;51.142;14.924;2023-05-23T05:02:12;98536.81;;;15.73;81.13
63500;BME280;49654;51.142;14.924;2023-05-23T05:04:39;98606.19;;;16.48;81.11
63500;BME280;49654;51.142;14.924;2023-05-23T05:07:06;98587.84;;;16.48;81.37
63500;BME280;49654;51.142;14.924;2023-05-23T05:09:33;98592.78;;;16.68;81.62
63500;BME280;49654;51.142;14.924;2023-05-23T05:12:02;98575.78;;;16.59;81.39
63500;BME280;49654;51.142;14.924;2023-05-23T05:14:29;98619.59;;;16.93;81.84
63500;BME280;49654;51.142;14.924;2023-05-23T05:16:56;98566.59;;;16.80;81.77
63500;BME280;49654;51.142;14.924;2023-05-23T05:19:24;98605.88;;;17.26;80.91
63500;BME280;49654;51.142;14.924;2023-05-23T05:21:50;98582.03;;;17.16;80.64
63500;BME280;49654;51.142;14.924;2023-05-23T05:24:18;98656.19;;;17.35;81.33
63500;BME280;49654;51.142;14.924;2023-05-23T05:26:47;98660.75;;;17.40;81.08
63500;BME280;49654;51.142;14.924;2023-05-23T05:29:15;98583.06;;;17.27;79.48
63500;BME280;49654;51.142;14.924;2023-05-23T05:31:42;98610.19;;;17.44;79.21
63500;BME280;49654;51.142;14.924;2023-05-23T05:34:10;98606.41;;;17.52;79.20
63500;BME280;49654;51.142;14.924;2023-05-23T05:36:37;98601.41;;;17.39;79.17
63500;BME280;49654;51.142;14.924;2023-05-23T05:39:10;98618.47;;;17.65;79.17
63500;BME280;49654;51.142;14.924;2023-05-23T05:41:37;98685.84;;;17.99;79.28
63500;BME280;49654;51.142;14.924;2023-05-23T05:44:05;98695.44;;;17.94;79.45
63500;BME280;49654;51.142;14.924;2023-05-23T05:46:34;98619.88;;;17.44;78.61
63500;BME280;49654;51.142;14.924;2023-05-23T05:49:01;98632.41;;;17.53;78.26
63500;BME280;49654;51.142;14.924;2023-05-23T05:51:28;98701.47;;;18.06;77.42
63500;BME280;49654;51.142;14.924;2023-05-23T05:53:56;98594.44;;;17.33;77.86
63500;BME280;49654;51.142;14.924;2023-05-23T05:56:23;98719.84;;;18.06;77.27
63500;BME280;49654;51.142;14.924;2023-05-23T05:58:50;98660.22;;;17.66;77.09
63500;BME280;49654;51.142;14.924;2023-05-23T06:01:17;98724.63;;;18.21;75.32
63500;BME280;49654;51.142;14.924;2023-05-23T06:03:46;98724.66;;;18.38;74.79
63500;BME280;49654;51.142;14.924;2023-05-23T06:06:13;98733.69;;;18.42;75.56
63500;BME280;49654;51.142;14.924;2023-05-23T06:08:40;98712.44;;;18.60;75.40
63500;BME280;49654;51.142;14.924;2023-05-23T06:11:13;98733.94;;;18.57;75.66
63500;BME280;49654;51.142;14.924;2023-05-23T06:13:40;98712.44;;;18.60;74.67
63500;BME280;49654;51.142;14.924;2023-05-23T06:16:07;98701.91;;;18.60;74.92
63500;BME280;49654;51.142;14.924;2023-05-23T06:18:36;98717.16;;;18.92;74.56
63500;BME280;49654;51.142;14.924;2023-05-23T06:21:15;98719.25;;;19.23;73.73
63500;BME280;49654;51.142;14.924;2023-05-23T06:23:48;98722.03;;;19.17;73.65
63500;BME280;49654;51.142;14.924;2023-05-23T06:26:28;98735.59;;;19.09;74.46
63500;BME280;49654;51.142;14.924;2023-05-23T06:29:18;98737.31;;;18.69;73.39
63500;BME280;49654;51.142;14.924;2023-05-23T06:32:13;98744.53;;;18.91;75.92
63500;BME280;49654;51.142;14.924;2023-05-23T06:35:08;98744.38;;;18.81;75.32
63500;BME280;49654;51.142;14.924;2023-05-23T06:38:05;98594.09;;;18.26;74.47
63500;BME280;49654;51.142;14.924;2023-05-23T06:40:49;98682.44;;;19.29;74.92
63500;BME280;49654;51.142;14.924;2023-05-23T06:43:23;98751.00;;;19.72;72.02
63500;BME280;49654;51.142;14.924;2023-05-23T06:46:16;98730.41;;;19.69;72.56
63500;BME280;49654;51.142;14.924;2023-05-23T06:48:47;98707.75;;;19.51;72.16
63500;BME280;49654;51.142;14.924;2023-05-23T07:17:07;98622.75;;;19.78;67.68
63500;BME280;49654;51.142;14.924;2023-05-23T07:19:57;98617.31;;;19.19;67.88
63500;BME280;49654;51.142;14.924;2023-05-23T07:22:59;98710.84;;;19.65;70.26
63500;BME280;49654;51.142;14.924;2023-05-23T07:27:57;98585.69;;;18.97;69.22
63500;BME280;49654;51.142;14.924;2023-05-23T07:43:27;98753.25;;;20.79;67.77
63500;BME280;49654;51.142;14.924;2023-05-23T07:45:59;98696.03;;;20.52;66.53
63500;BME280;49654;51.142;14.924;2023-05-23T07:48:28;98637.50;;;20.01;66.93
63500;BME280;49654;51.142;14.924;2023-05-23T07:50:56;98641.06;;;20.17;65.40
63500;BME280;49654;51.142;14.924;2023-05-23T07:53:26;98645.94;;;20.03;65.81
63500;BME280;49654;51.142;14.924;2023-05-23T07:55:55;98684.31;;;20.43;65.94
63500;BME280;49654;51.142;14.924;2023-05-23T07:58:24;98696.53;;;20.49;67.17
63500;BME280;49654;51.142;14.924;2023-05-23T08:00:53;98758.69;;;20.45;67.27
63500;BME280;49654;51.142;14.924;2023-05-23T08:03:20;98639.09;;;19.75;68.50
63500;BME280;49654;51.142;14.924;2023-05-23T08:08:27;98694.84;;;19.67;69.59
63500;BME280;49654;51.142;14.924;2023-05-23T08:11:05;98720.91;;;19.90;69.56
63500;BME280;49654;51.142;14.924;2023-05-23T08:13:32;98700.75;;;20.01;67.03
63500;BME280;49654;51.142;14.924;2023-05-23T08:16:01;98699.88;;;20.17;65.15
63500;BME280;49654;51.142;14.924;2023-05-23T08:18:28;98691.22;;;21.13;64.28
63500;BME280;49654;51.142;14.924;2023-05-23T08:20:55;98749.91;;;22.31;61.59
63500;BME280;49654;51.142;14.924;2023-05-23T08:23:22;98754.72;;;22.49;60.01
63500;BME280;49654;51.142;14.924;2023-05-23T08:25:51;98768.47;;;22.41;60.34
63500;BME280;49654;51.142;14.924;2023-05-23T08:28:18;98747.94;;;22.00;60.73
63500;BME280;49654;51.142;14.924;2023-05-23T08:30:45;98752.63;;;21.88;60.89
63500;BME280;49654;51.142;14.924;2023-05-23T08:33:14;98726.00;;;22.00;60.28
63500;BME280;49654;51.142;14.924;2023-05-23T08:35:41;98666.03;;;21.38;62.46
63500;BME280;49654;51.142;14.924;2023-05-23T08:38:08;98732.72;;;21.65;63.23
63500;BME280;49654;51.142;14.924;2023-05-23T08:40:35;98769.63;;;21.97;65.04
63500;BME280;49654;51.142;14.924;2023-05-23T08:43:03;98774.22;;;21.70;64.60
63500;BME280;49654;51.142;14.924;2023-05-23T08:45:31;98778.06;;;21.47;65.79
63500;BME280;49654;51.142;14.924;2023-05-23T08:48:00;98694.25;;;20.36;65.61
63500;BME280;49654;51.142;14.924;2023-05-23T08:50:29;98770.47;;;20.59;65.48
63500;BME280;49654;51.142;14.924;2023-05-23T08:52:57;98679.78;;;20.11;65.95
63500;BME280;49654;51.142;14.924;2023-05-23T08:55:27;98767.81;;;20.59;66.39
63500;BME280;49654;51.142;14.924;2023-05-23T08:57:56;98763.44;;;20.21;66.85
63500;BME280;49654;51.142;14.924;2023-05-23T09:00:25;98780.66;;;20.29;66.72
63500;BME280;49654;51.142;14.924;2023-05-23T09:02:53;98747.13;;;20.24;68.40
63500;BME280;49654;51.142;14.924;2023-05-23T09:05:20;98697.88;;;20.02;69.09
63500;BME280;49654;51.142;14.924;2023-05-23T09:07:48;98727.59;;;20.74;67.44
63500;BME280;49654;51.142;14.924;2023-05-23T09:10:18;98784.66;;;20.80;65.23
63500;BME280;49654;51.142;14.924;2023-05-23T09:12:48;98786.84;;;20.88;65.58
63500;BME280;49654;51.142;14.924;2023-05-23T09:15:15;98793.22;;;21.24;63.92
63500;BME280;49654;51.142;14.924;2023-05-23T09:17:43;98796.66;;;21.62;63.80
63500;BME280;49654;51.142;14.924;2023-05-23T09:20:12;98740.72;;;21.75;62.25
63500;BME280;49654;51.142;14.924;2023-05-23T09:22:40;98777.72;;;21.75;61.91
63500;BME280;49654;51.142;14.924;2023-05-23T09:25:13;98785.00;;;22.06;61.61
63500;BME280;49654;51.142;14.924;2023-05-23T09:27:40;98788.50;;;22.27;60.81
63500;BME280;49654;51.142;14.924;2023-05-23T09:30:12;98773.09;;;21.56;60.11
63500;BME280;49654;51.142;14.924;2023-05-23T09:32:39;98796.72;;;22.25;60.29
63500;BME280;49654;51.142;14.924;2023-05-23T09:35:09;98764.09;;;21.19;60.26
63500;BME280;49654;51.142;14.924;2023-05-23T09:37:42;98715.66;;;20.66;61.41
63500;BME280;49654;51.142;14.924;2023-05-23T09:40:13;98767.03;;;21.55;60.36
63500;BME280;49654;51.142;14.924;2023-05-23T09:42:41;98681.03;;;20.90;60.92
63500;BME280;49654;51.142;14.924;2023-05-23T09:45:12;98791.28;;;20.83;62.79
63500;BME280;49654;51.142;14.924;2023-05-23T09:47:48;98746.03;;;20.47;64.47
63500;BME280;49654;51.142;14.924;2023-05-23T09:50:15;98723.84;;;20.16;64.95
63500;BME280;49654;51.142;14.924;2023-05-23T09:52:42;98799.22;;;21.47;62.54
63500;BME280;49654;51.142;14.924;2023-05-23T09:55:13;98762.31;;;20.93;61.88
63500;BME280;49654;51.142;14.924;2023-05-23T09:57:41;98779.13;;;21.14;63.96
63500;BME280;49654;51.142;14.924;2023-05-23T10:00:17;98743.81;;;20.56;61.51
63500;BME280;49654;51.142;14.924;2023-05-23T10:03:03;98678.63;;;20.02;61.31
63500;BME280;49654;51.142;14.924;2023-05-23T10:05:34;98799.84;;;21.64;60.33
63500;BME280;49654;51.142;14.924;2023-05-23T10:08:29;98760.56;;;21.36;58.95
63500;BME280;49654;51.142;14.924;2023-05-23T10:14:16;98791.53;;;21.93;56.61
63500;BME280;49654;51.142;14.924;2023-05-23T10:16:52;98800.44;;;22.34;56.45
63500;BME280;49654;51.142;14.924;2023-05-23T10:19:23;98756.13;;;21.99;56.89
63500;BME280;49654;51.142;14.924;2023-05-23T10:21:56;98802.00;;;22.20;57.49
63500;BME280;49654;51.142;14.924;2023-05-23T10:24:24;98795.81;;;22.09;57.34
63500;BME280;49654;51.142;14.924;2023-05-23T10:26:53;98798.19;;;22.79;56.41
63500;BME280;49654;51.142;14.924;2023-05-23T10:29:20;98790.00;;;23.36;52.91
63500;BME280;49654;51.142;14.924;2023-05-23T10:31:49;98790.53;;;23.28;53.96
63500;BME280;49654;51.142;14.924;2023-05-23T10:34:22;98790.75;;;23.52;53.41
63500;BME280;49654;51.142;14.924;2023-05-23T10:36:58;98791.88;;;23.05;56.30
63500;BME280;49654;51.142;14.924;2023-05-23T10:39:33;98788.94;;;22.96;56.79
63500;BME280;49654;51.142;14.924;2023-05-23T10:42:07;98791.50;;;22.56;56.48
63500;BME280;49654;51.142;14.924;2023-05-23T10:44:37;98789.69;;;22.61;55.95
63500;BME280;49654;51.142;14.924;2023-05-23T10:47:04;98769.88;;;23.15;55.40
63500;BME280;49654;51.142;14.924;2023-05-23T10:49:41;98783.75;;;24.02;53.21
63500;BME280;49654;51.142;14.924;2023-05-23T10:52:10;98783.38;;;24.73;50.31
63500;BME280;49654;51.142;14.924;2023-05-23T10:54:42;98779.94;;;24.73;50.05
63500;BME280;49654;51.142;14.924;2023-05-23T10:57:16;98786.66;;;24.60;49.69
63500;BME280;49654;51.142;14.924;2023-05-23T10:59:45;98776.09;;;23.95;51.15
63500;BME280;49654;51.142;14.924;2023-05-23T11:02:15;98782.31;;;23.24;54.78
63500;BME280;49654;51.142;14.924;2023-05-23T11:04:43;98795.53;;;23.50;54.78
63500;BME280;49654;51.142;14.924;2023-05-23T11:07:29;98803.50;;;22.94;55.94
63500;BME280;49654;51.142;14.924;2023-05-23T11:10:02;98796.47;;;22.32;56.63
63500;BME280;49654;51.142;14.924;2023-05-23T11:12:40;98801.22;;;22.24;57.81
63500;BME280;49654;51.142;14.924;2023-05-23T11:15:20;98794.44;;;21.96;58.59
63500;BME280;49654;51.142;14.924;2023-05-23T11:17:51;98797.16;;;22.12;58.77
63500;BME280;49654;51.142;14.924;2023-05-23T11:20:19;98793.09;;;21.89;57.83
63500;BME280;49654;51.142;14.924;2023-05-23T11:22:53;98792.84;;;21.90;58.60
63500;BME280;49654;51.142;14.924;2023-05-23T11:25:20;98795.97;;;22.40;56.66
63500;BME280;49654;51.142;14.924;2023-05-23T11:27:49;98744.72;;;23.22;54.10
63500;BME280;49654;51.142;14.924;2023-05-23T11:30:18;98791.06;;;25.43;50.56
63500;BME280;49654;51.142;14.924;2023-05-23T11:32:49;98777.81;;;25.14;51.75
63500;BME280;49654;51.142;14.924;2023-05-23T11:35:17;98744.66;;;23.38;53.58
63500;BME280;49654;51.142;14.924;2023-05-23T11:37:44;98791.81;;;23.56;53.74
63500;BME280;49654;51.142;14.924;2023-05-23T11:40:26;98795.50;;;22.58;55.75
63500;BME280;49654;51.142;14.924;2023-05-23T11:42:54;98794.75;;;22.05;57.66
63500;BME280;49654;51.142;14.924;2023-05-23T11:45:22;98789.16;;;22.85;56.69
63500;BME280;49654;51.142;14.924;2023-05-23T11:47:49;98779.06;;;22.46;55.48
63500;BME280;49654;51.142;14.924;2023-05-23T11:50:16;98774.03;;;22.55;56.20
63500;BME280;49654;51.142;14.924;2023-05-23T11:52:45;98780.44;;;22.79;54.21
63500;BME280;49654;51.142;14.924;2023-05-23T11:55:16;98761.31;;;22.31;55.58
63500;BME280;49654;51.142;14.924;2023-05-23T11:57:43;98794.69;;;22.58;55.42
63500;BME280;49654;51.142;14.924;2023-05-23T12:00:13;98753.50;;;22.04;56.61
63500;BME280;49654;51.142;14.924;2023-05-23T12:02:41;98771.16;;;22.61;57.03
63500;BME280;49654;51.142;14.924;2023-05-23T12:05:10;98770.63;;;22.69;54.80
63500;BME280;49654;51.142;14.924;2023-05-23T12:07:39;98796.03;;;22.70;56.44
63500;BME280;49654;51.142;14.924;2023-05-23T12:10:07;98790.78;;;23.32;55.75
63500;BME280;49654;51.142;14.924;2023-05-23T12:12:34;98791.88;;;23.26;54.46
63500;BME280;49654;51.142;14.924;2023-05-23T12:15:02;98800.88;;;23.09;55.68
63500;BME280;49654;51.142;14.924;2023-05-23T12:17:31;98782.88;;;23.21;56.15
63500;BME280;49654;51.142;14.924;2023-05-23T12:19:58;98731.97;;;23.40;53.66
63500;BME280;49654;51.142;14.924;2023-05-23T12:22:26;98783.34;;;23.69;52.83
63500;BME280;49654;51.142;14.924;2023-05-23T12:24:54;98774.72;;;24.97;51.74
63500;BME280;49654;51.142;14.924;2023-05-23T12:27:26;98785.69;;;24.85;49.89
63500;BME280;49654;51.142;14.924;2023-05-23T12:30:03;98780.00;;;26.51;46.26
63500;BME280;49654;51.142;14.924;2023-05-23T12:32:32;98778.28;;;29.08;39.11
63500;BME280;49654;51.142;14.924;2023-05-23T12:35:00;98774.97;;;28.89;40.30
63500;BME280;49654;51.142;14.924;2023-05-23T12:37:27;98787.31;;;26.21;46.77
63500;BME280;49654;51.142;14.924;2023-05-23T12:39:54;98774.44;;;27.18;45.59
63500;BME280;49654;51.142;14.924;2023-05-23T12:42:21;98787.22;;;28.45;41.67
63500;BME280;49654;51.142;14.924;2023-05-23T12:44:50;98781.44;;;29.41;37.95
63500;BME280;49654;51.142;14.924;2023-05-23T12:47:17;98788.34;;;29.11;38.99
63500;BME280;49654;51.142;14.924;2023-05-23T12:49:46;98760.69;;;28.93;39.25
63500;BME280;49654;51.142;14.924;2023-05-23T12:52:13;98789.94;;;28.04;41.04
63500;BME280;49654;51.142;14.924;2023-05-23T12:54:40;98777.38;;;26.84;43.34
63500;BME280;49654;51.142;14.924;2023-05-23T12:57:07;98782.25;;;27.88;42.41
63500;BME280;49654;51.142;14.924;2023-05-23T12:59:34;98767.94;;;29.15;38.48
63500;BME280;49654;51.142;14.924;2023-05-23T13:02:01;98776.59;;;29.83;36.98
63500;BME280;49654;51.142;14.924;2023-05-23T13:04:28;98779.19;;;29.57;36.85
63500;BME280;49654;51.142;14.924;2023-05-23T13:06:56;98777.59;;;29.56;39.01
63500;BME280;49654;51.142;14.924;2023-05-23T13:09:23;98705.50;;;28.89;37.78
63500;BME280;49654;51.142;14.924;2023-05-23T13:11:50;98780.25;;;31.35;33.65
63500;BME280;49654;51.142;14.924;2023-05-23T13:14:17;98768.19;;;31.88;32.23
63500;BME280;49654;51.142;14.924;2023-05-23T13:16:44;98765.84;;;30.58;35.08
63500;BME280;49654;51.142;14.924;2023-05-23T13:19:11;98768.28;;;31.32;33.08
63500;BME280;49654;51.142;14.924;2023-05-23T13:21:38;98782.06;;;30.44;35.41
63500;BME280;49654;51.142;14.924;2023-05-23T13:24:07;98779.25;;;30.84;33.33
63500;BME280;49654;51.142;14.924;2023-05-23T13:26:34;98786.09;;;31.20;34.21
63500;BME280;49654;51.142;14.924;2023-05-23T13:29:01;98785.59;;;31.26;33.44
63500;BME280;49654;51.142;14.924;2023-05-23T13:31:28;98780.25;;;31.17;33.49
63500;BME280;49654;51.142;14.924;2023-05-23T13:33:55;98772.63;;;32.76;31.74
63500;BME280;49654;51.142;14.924;2023-05-23T13:36:22;98777.13;;;32.01;32.27
63500;BME280;49654;51.142;14.924;2023-05-23T13:38:50;98742.97;;;32.85;30.52
63500;BME280;49654;51.142;14.924;2023-05-23T13:41:18;98796.72;;;30.55;33.50
63500;BME280;49654;51.142;14.924;2023-05-23T13:43:45;98780.28;;;29.03;37.66
63500;BME280;49654;51.142;14.924;2023-05-23T13:46:12;98796.22;;;30.62;34.36
63500;BME280;49654;51.142;14.924;2023-05-23T13:48:39;98807.75;;;31.70;32.56